Etusivu
METAR-TAF:

METAR-TAF

Lentoasemat :

Oruro, Bolivia

Leveyspiiri: 17-58S, Pituuspiiri: 067-04W, korkeus merenpinnasta: 3072 m

Tämänhetkinen sää

Tämä raportti tehtiin 3 tuntia ja 11 minuuttia sitten, kello 23.00 UTC
Tuuli 6 kn etelästä
Lämpötila 14°C
Kosteus 55%
Ilmanpaine 1034 hPa
Näkyvyys 10 km tai enemmän
Muutamia pilviä 1500 ft:n korkeudessa

METAR: SLOR 232300Z 18006KT 9999 FEW015 14/05 Q1034

Aika: 22:11 (02:11 UTC)


TAF: puuttuu

Säähavainnot ja -ennusteet yli 4000 lentoasemalta (METAR- ja TAF-raportit).

Käytössä olevat sääasemat on merkitty karttaan keltaisilla ja punaisilla pisteillä.

Aseta hiiri pisteen päälle nähdäksesi sääaseman nimen.

Klikkaa sitten nähdäksesi säähavainnot ja -ennusteet.

Kartan vaihtaminen: klikkaa mustalla rastilla varustettuja vihreitä pisteitä, niin voit zoomata sisään; viivalla varustettua vihreää pistettä, niin voit zoomata ulos tai vihreitä nuolia, niin pääset viereisille kartoille.


METAR-TAF: